Colmslie — VJN3166 — position and weather

sailwx.info

Track history (hours):
 
Tides and Currents Weather Stations Pressure Air Temp Water Temp Dewpoint Dewpoint Depression Visibility Wind Speed Wind Dir Waves Ship Positions

Colmslie

Last reported at 2017-Sep-20 19:20 UTC. Time now 2017-Sep-21 03:37 UTC.
Position S 27°24' E 153°09'.

Length 22 m; draft 5.4 m.

Type: Tug. MMSI: 503194500.

Date/timePositionNaut miles runAvg speedWind from/ knotsBaromVisibWave heightAir tempDewpointWater temp
2017-Sep-20 19:20S 27°24' E 153°09'0 0.0
2017-Sep-20 18:59S 27°24' E 153°09'0 0.0
2017-Sep-20 18:29S 27°24' E 153°09'0 0.0
2017-Sep-20 17:56S 27°24' E 153°09'0 0.0
2017-Sep-20 17:29S 27°24' E 153°09'0 0.0
2017-Sep-20 16:59S 27°24' E 153°09'0 0.0
2017-Sep-20 16:29S 27°24' E 153°09'0 0.0
2017-Sep-20 15:59S 27°24' E 153°09'0 0.0
2017-Sep-20 15:26S 27°24' E 153°09'0 0.0
2017-Sep-20 14:56S 27°24' E 153°09'2 2.6
2017-Sep-20 14:00S 27°22' E 153°11'2 3.9
2017-Sep-20 13:30S 27°23' E 153°09'1 0.0
2017-Sep-19 18:00S 27°24' E 153°09'0 0.0
2017-Sep-19 17:24S 27°24' E 153°09'0 0.0
2017-Sep-19 17:00S 27°24' E 153°09'0 0.0
2017-Sep-19 16:30S 27°24' E 153°09'0 0.0
2017-Sep-19 15:57S 27°24' E 153°09'0 0.0
2017-Sep-19 15:30S 27°24' E 153°09'0 0.0
2017-Sep-19 15:00S 27°24' E 153°09'0 0.0
2017-Sep-19 14:30S 27°24' E 153°09'0 0.0
2017-Sep-19 14:00S 27°24' E 153°09'0 0.0
2017-Sep-19 13:30S 27°24' E 153°09'0 0.0
2017-Sep-19 13:00S 27°24' E 153°09'0 0.0
2017-Sep-19 12:30S 27°24' E 153°09'0 0.0
2017-Sep-19 12:00S 27°24' E 153°09'0 0.0
2017-Sep-19 11:30S 27°24' E 153°09'0 0.0
2017-Sep-19 01:02S 27°24' E 153°09'2 4.6
2017-Sep-19 00:33S 27°22' E 153°10'0 0.3
2017-Sep-19 00:15S 27°22' E 153°10'0 0.1
2017-Sep-18 23:48S 27°22' E 153°10'1 0.5
2017-Sep-18 21:54S 27°23' E 153°10'0 0.2
2017-Sep-18 21:30S 27°23' E 153°10'1 2.7
2017-Sep-18 21:00S 27°22' E 153°11'3 5.3
2017-Sep-18 20:30S 27°24' E 153°09'3 5.8
2017-Sep-18 19:58S 27°26' E 153°07'2 3.8
2017-Sep-18 19:22S 27°27' E 153°04'4 6.1
2017-Sep-18 18:47S 27°25' E 153°08'3 7.6
2017-Sep-18 18:25S 27°23' E 153°10'1 2.8
2017-Sep-18 17:58S 27°22' E 153°11'0 0.0
2017-Sep-18 17:30S 27°22' E 153°11'1 1.9
2017-Sep-18 17:00S 27°23' E 153°10'1 2.8
2017-Sep-18 16:29S 27°24' E 153°09'0 0.0
2017-Sep-18 15:56S 27°24' E 153°09'0 0.0
2017-Sep-18 15:29S 27°24' E 153°09'0 0.0
2017-Sep-18 14:59S 27°24' E 153°09'0 0.0
2017-Sep-18 14:29S 27°24' E 153°09'0 0.0
2017-Sep-18 13:59S 27°24' E 153°09'0 0.0
2017-Sep-18 13:14S 27°24' E 153°09'0 0.0
2017-Sep-18 12:20S 27°24' E 153°09'2 1.3
2017-Sep-18 11:02S 27°25' E 153°08'2 8.1
2017-Sep-18 10:50S 27°24' E 153°09'0 0.5
2017-Sep-18 10:30S 27°24' E 153°09'0 0.0
2017-Sep-18 10:00S 27°24' E 153°09'0 0.0
2017-Sep-18 09:21S 27°24' E 153°09'0 1.1
2017-Sep-18 09:00S 27°24' E 153°09'1 2.8
2017-Sep-18 08:30S 27°22' E 153°10'0 0.6
2017-Sep-18 08:01S 27°23' E 153°10'1 1.4
2017-Sep-18 07:01S 27°24' E 153°09'0 0.3
2017-Sep-18 06:57S 27°24' E 153°09'1 2.9
2017-Sep-18 06:30S 27°23' E 153°10'1 2.5
2017-Sep-18 05:58S 27°22' E 153°11'0 0.1
2017-Sep-18 04:21S 27°22' E 153°11'0 0.1
2017-Sep-18 03:52S 27°22' E 153°11'0 0.2
2017-Sep-18 03:20S 27°22' E 153°11'2 1.6
2017-Sep-18 01:54S 27°24' E 153°09'1 0.3
2017-Sep-18 00:04S 27°23' E 153°09'0 0.0
2017-Sep-17 23:37S 27°23' E 153°09'1 0.7
2017-Sep-17 21:41S 27°22' E 153°10'0 0.6
2017-Sep-17 21:18S 27°22' E 153°11'0 0.3
2017-Sep-17 20:59S 27°22' E 153°10'0 0.1
2017-Sep-17 20:30S 27°22' E 153°10'1 1.1
2017-Sep-17 20:00S 27°22' E 153°10'2 3.5
2017-Sep-17 19:30S 27°24' E 153°09'0 0.0
2017-Sep-17 19:00S 27°24' E 153°09'0 0.0
2017-Sep-17 18:30S 27°24' E 153°09'0 0.0
2017-Sep-17 18:00S 27°24' E 153°09'0 0.0
2017-Sep-17 17:30S 27°24' E 153°09'0 0.0
2017-Sep-17 17:00S 27°24' E 153°09'0 0.0
2017-Sep-17 16:31S 27°24' E 153°09'0 0.0
2017-Sep-17 16:00S 27°24' E 153°09'0 0.0
2017-Sep-17 15:30S 27°24' E 153°09'0 0.0
2017-Sep-17 15:01S 27°24' E 153°09'0 0.0
2017-Sep-17 14:31S 27°24' E 153°09'0 0.0
2017-Sep-17 14:01S 27°24' E 153°09'0 0.0
2017-Sep-17 13:31S 27°24' E 153°09'0 0.0
2017-Sep-17 13:01S 27°24' E 153°09'0 0.0
2017-Sep-17 12:29S 27°24' E 153°09'1 1.8
2017-Sep-17 11:53S 27°23' E 153°10'0 0.0
2017-Sep-17 11:29S 27°23' E 153°10'0 0.1
2017-Sep-17 11:00S 27°23' E 153°10'1 2.4
2017-Sep-17 10:30S 27°22' E 153°10'2 3.4
2017-Sep-17 10:00S 27°23' E 153°09'1 1.3
2017-Sep-17 09:23S 27°24' E 153°09'0 0.0
2017-Sep-17 09:00S 27°24' E 153°09'0 0.0
2017-Sep-17 08:30S 27°24' E 153°09'0 0.0
2017-Sep-17 07:50S 27°24' E 153°09'3 0.3
2017-Sep-16 22:45S 27°21' E 153°11'0 1.6
2017-Sep-16 22:30S 27°22' E 153°11'0 0.0
2017-Sep-16 21:57S 27°22' E 153°11'3 1.5
2017-Sep-16 20:06S 27°24' E 153°09'0 0.3
2017-Sep-16 19:57S 27°24' E 153°09'0 0.8
2017-Sep-16 19:30S 27°24' E 153°09'0 0.0
2017-Sep-16 19:00S 27°24' E 153°09'0 0.0
2017-Sep-16 18:30S 27°24' E 153°09'0 0.0
2017-Sep-16 18:00S 27°24' E 153°09'0 0.0
2017-Sep-16 17:30S 27°24' E 153°09'0 0.0
2017-Sep-16 16:51S 27°24' E 153°09'0 0.0
2017-Sep-16 16:27S 27°24' E 153°09'0 0.0
2017-Sep-16 15:51S 27°24' E 153°09'0 0.0
2017-Sep-16 15:27S 27°24' E 153°09'0 0.0
2017-Sep-16 13:24S 27°24' E 153°09'0 0.0
2017-Sep-16 12:54S 27°24' E 153°09'0 0.0
2017-Sep-16 11:39S 27°24' E 153°09'0 0.0
2017-Sep-16 09:09S 27°24' E 153°09'0 0.0
2017-Sep-16 08:57S 27°24' E 153°09'0 0.0
2017-Sep-15 19:56S 27°24' E 153°09'1 3.0
2017-Sep-15 19:29S 27°23' E 153°10'0 1.0
2017-Sep-15 19:00S 27°22' E 153°10'0 0.8
2017-Sep-15 18:31S 27°23' E 153°10'1 1.5
2017-Sep-15 17:33S 27°24' E 153°09'0 0.0
2017-Sep-15 17:24S 27°24' E 153°09'0 0.0
2017-Sep-15 16:57S 27°24' E 153°09'0 0.0
2017-Sep-15 16:30S 27°24' E 153°09'0 0.0
2017-Sep-15 16:00S 27°24' E 153°09'0 0.0
2017-Sep-15 15:27S 27°24' E 153°09'0 0.0
2017-Sep-15 15:00S 27°24' E 153°09'0 0.0
2017-Sep-15 14:24S 27°24' E 153°09'0 0.0
2017-Sep-15 14:00S 27°24' E 153°09'0 0.0
2017-Sep-15 13:30S 27°24' E 153°09'0 0.0
2017-Sep-15 12:57S 27°24' E 153°09'0 0.0
2017-Sep-15 12:03S 27°24' E 153°09'0 0.0
2017-Sep-15 11:54S 27°24' E 153°09'0 0.0
2017-Sep-15 11:30S 27°24' E 153°09'0 0.0
2017-Sep-15 10:54S 27°24' E 153°09'0 0.0
2017-Sep-15 10:30S 27°24' E 153°09'0 0.0
2017-Sep-15 09:54S 27°24' E 153°09'0 0.0
2017-Sep-15 09:27S 27°24' E 153°09'0 0.0
2017-Sep-15 09:00S 27°24' E 153°09'0 0.0
2017-Sep-15 08:27S 27°24' E 153°09'0 0.0
2017-Sep-15 08:00S 27°24' E 153°09'2 0.7
2017-Sep-15 05:05S 27°22' E 153°10'0 2.6
2017-Sep-15 04:55S 27°23' E 153°10'1 1.9
2017-Sep-15 04:28S 27°22' E 153°11'0 0.2
2017-Sep-15 03:40S 27°22' E 153°10'2 8.5
2017-Sep-15 03:29S 27°23' E 153°09'1 0.1
2017-Sep-14 19:37S 27°24' E 153°09'0 0.0
2017-Sep-14 19:19S 27°24' E 153°09'0 0.0
2017-Sep-14 18:55S 27°24' E 153°09'0 0.0
2017-Sep-14 18:25S 27°24' E 153°09'0 0.0
2017-Sep-14 17:55S 27°24' E 153°09'0 0.0
2017-Sep-14 17:25S 27°24' E 153°09'0 0.0
2017-Sep-14 16:55S 27°24' E 153°09'0 0.0
2017-Sep-14 16:25S 27°24' E 153°09'0 0.0
2017-Sep-14 15:58S 27°24' E 153°09'0 0.0
2017-Sep-14 15:28S 27°24' E 153°09'0 0.0
2017-Sep-14 14:55S 27°24' E 153°09'0 0.0
2017-Sep-14 13:34S 27°24' E 153°09'0 0.0
2017-Sep-14 13:28S 27°24' E 153°09'0 0.0
2017-Sep-14 12:40S 27°24' E 153°09'0 0.0
2017-Sep-14 12:22S 27°24' E 153°09'0 0.0
2017-Sep-14 10:25S 27°24' E 153°09'1 0.1
2017-Sep-14 00:20S 27°23' E 153°09'2 1.4
2017-Sep-13 23:10S 27°22' E 153°10'2 9.3
2017-Sep-13 23:00S 27°23' E 153°09'0 0.0
2017-Sep-13 22:30S 27°23' E 153°09'2 4.3
2017-Sep-13 22:00S 27°21' E 153°11'3 2.2
2017-Sep-13 20:39S 27°24' E 153°09'0 0.0
2017-Sep-13 20:27S 27°24' E 153°09'0 0.0
2017-Sep-13 19:57S 27°24' E 153°09'0 0.0
2017-Sep-13 19:30S 27°24' E 153°09'0 0.0
2017-Sep-13 19:00S 27°24' E 153°09'2 4.3
2017-Sep-13 18:30S 27°22' E 153°10'1 2.1
2017-Sep-13 18:00S 27°21' E 153°11'1 1.6
2017-Sep-13 17:30S 27°22' E 153°11'0 0.0
2017-Sep-13 17:00S 27°22' E 153°11'1 1.3
2017-Sep-13 16:30S 27°22' E 153°10'2 3.5
2017-Sep-13 15:59S 27°24' E 153°09'0 0.0
2017-Sep-13 15:30S 27°24' E 153°09'1 2.0
2017-Sep-13 14:59S 27°23' E 153°10'0 0.0
2017-Sep-13 14:30S 27°23' E 153°10'1 2.6
2017-Sep-13 13:59S 27°22' E 153°10'2 4.8
2017-Sep-13 13:30S 27°24' E 153°09'0 0.0
2017-Sep-13 12:59S 27°24' E 153°09'0 0.0
2017-Sep-13 12:29S 27°24' E 153°09'0 0.0
2017-Sep-13 11:59S 27°24' E 153°09'0 0.0
2017-Sep-13 11:29S 27°24' E 153°09'0 0.0
2017-Sep-13 10:59S 27°24' E 153°09'0 0.0
2017-Sep-13 10:29S 27°24' E 153°09'0 0.0
2017-Sep-13 09:59S 27°24' E 153°09'0 0.0
2017-Sep-13 09:29S 27°24' E 153°09'0 0.0
2017-Sep-13 08:59S 27°24' E 153°09'0 0.0
2017-Sep-13 08:29S 27°24' E 153°09'0 0.2
2017-Sep-13 06:33S 27°24' E 153°09'0 3.9
2017-Sep-13 06:28S 27°24' E 153°09'1 0.5
2017-Sep-13 04:01S 27°23' E 153°10'0 0.9
2017-Sep-13 03:52S 27°23' E 153°10'0 0.1
2017-Sep-13 03:23S 27°23' E 153°10'0 0.0
2017-Sep-12 20:56S 27°23' E 153°10'1 1.7
2017-Sep-12 20:03S 27°24' E 153°09'1 7.7
2017-Sep-12 19:55S 27°23' E 153°10'0 0.8
2017-Sep-12 19:30S 27°23' E 153°10'2 3.1
2017-Sep-12 19:00S 27°21' E 153°11'3 0.6
2017-Sep-12 14:01S 27°24' E 153°09'0 0.0
2017-Sep-12 14:00S 27°24' E 153°09'0 0.0
2017-Sep-12 13:30S 27°24' E 153°09'0 0.0
2017-Sep-12 13:00S 27°24' E 153°09'0 0.0
2017-Sep-12 12:30S 27°24' E 153°09'0 0.0
2017-Sep-12 11:59S 27°24' E 153°09'0 0.0
2017-Sep-12 11:30S 27°24' E 153°09'0 0.0
2017-Sep-12 11:00S 27°24' E 153°09'0 0.0
2017-Sep-12 10:30S 27°24' E 153°09'0 0.0
2017-Sep-12 09:59S 27°24' E 153°09'0 0.0
2017-Sep-12 09:30S 27°24' E 153°09'0 0.0
2017-Sep-12 08:59S 27°24' E 153°09'0 0.0
2017-Sep-12 08:30S 27°24' E 153°09'0 0.0
2017-Sep-12 08:00S 27°24' E 153°09'0 0.0
2017-Sep-12 07:30S 27°24' E 153°09'0 0.0
2017-Sep-11 16:42S 27°24' E 153°09'0 0.0
2017-Sep-11 15:47S 27°24' E 153°09'0 0.0
2017-Sep-11 15:25S 27°24' E 153°09'0 0.0
2017-Sep-11 15:00S 27°24' E 153°09'0 0.0
2017-Sep-11 14:29S 27°24' E 153°09'0 0.0
2017-Sep-11 13:59S 27°24' E 153°09'0 0.0
2017-Sep-11 13:22S 27°24' E 153°09'0 0.0
2017-Sep-11 12:54S 27°24' E 153°09'3 6.6
2017-Sep-11 12:30S 27°22' E 153°11'0 0.4
2017-Sep-11 12:00S 27°22' E 153°11'1 1.6
2017-Sep-11 11:30S 27°22' E 153°10'2 3.9
2017-Sep-11 10:59S 27°24' E 153°09'0 0.0
2017-Sep-11 10:30S 27°24' E 153°09'1 1.0
2017-Sep-11 10:00S 27°24' E 153°09'2 1.8
2017-Sep-11 08:44S 27°26' E 153°08'2 6.4
2017-Sep-11 08:26S 27°24' E 153°09'0 0.0
2017-Sep-10 19:38S 27°24' E 153°09'0 0.0
2017-Sep-10 19:29S 27°24' E 153°09'  
Track history (hours):
 
Tides and Currents Weather Stations Pressure Air Temp Water Temp Dewpoint Dewpoint Depression Visibility Wind Speed Wind Dir Waves Ship Positions

Colmslie

Last reported at 2017-Sep-20 19:20 UTC. Time now 2017-Sep-21 03:37 UTC.
Position S 27°24' E 153°09'.

Length 22 m; draft 5.4 m.

Type: Tug. MMSI: 503194500.

Date/timePositionNaut miles runAvg speedWind from/ knotsBaromVisibWave heightAir tempDewpointWater temp
2017-Sep-20 19:20S 27°24' E 153°09'0 0.0
2017-Sep-20 18:59S 27°24' E 153°09'0 0.0
2017-Sep-20 18:29S 27°24' E 153°09'0 0.0
2017-Sep-20 17:56S 27°24' E 153°09'0 0.0
2017-Sep-20 17:29S 27°24' E 153°09'0 0.0
2017-Sep-20 16:59S 27°24' E 153°09'0 0.0
2017-Sep-20 16:29S 27°24' E 153°09'0 0.0
2017-Sep-20 15:59S 27°24' E 153°09'0 0.0
2017-Sep-20 15:26S 27°24' E 153°09'0 0.0
2017-Sep-20 14:56S 27°24' E 153°09'2 2.6
2017-Sep-20 14:00S 27°22' E 153°11'2 3.9
2017-Sep-20 13:30S 27°23' E 153°09'1 0.0
2017-Sep-19 18:00S 27°24' E 153°09'0 0.0
2017-Sep-19 17:24S 27°24' E 153°09'0 0.0
2017-Sep-19 17:00S 27°24' E 153°09'0 0.0
2017-Sep-19 16:30S 27°24' E 153°09'0 0.0
2017-Sep-19 15:57S 27°24' E 153°09'0 0.0
2017-Sep-19 15:30S 27°24' E 153°09'0 0.0
2017-Sep-19 15:00S 27°24' E 153°09'0 0.0
2017-Sep-19 14:30S 27°24' E 153°09'0 0.0
2017-Sep-19 14:00S 27°24' E 153°09'0 0.0
2017-Sep-19 13:30S 27°24' E 153°09'0 0.0
2017-Sep-19 13:00S 27°24' E 153°09'0 0.0
2017-Sep-19 12:30S 27°24' E 153°09'0 0.0
2017-Sep-19 12:00S 27°24' E 153°09'0 0.0
2017-Sep-19 11:30S 27°24' E 153°09'0 0.0
2017-Sep-19 01:02S 27°24' E 153°09'2 4.6
2017-Sep-19 00:33S 27°22' E 153°10'0 0.3
2017-Sep-19 00:15S 27°22' E 153°10'0 0.1
2017-Sep-18 23:48S 27°22' E 153°10'1 0.5
2017-Sep-18 21:54S 27°23' E 153°10'0 0.2
2017-Sep-18 21:30S 27°23' E 153°10'1 2.7
2017-Sep-18 21:00S 27°22' E 153°11'3 5.3
2017-Sep-18 20:30S 27°24' E 153°09'3 5.8
2017-Sep-18 19:58S 27°26' E 153°07'2 3.8
2017-Sep-18 19:22S 27°27' E 153°04'4 6.1
2017-Sep-18 18:47S 27°25' E 153°08'3 7.6
2017-Sep-18 18:25S 27°23' E 153°10'1 2.8
2017-Sep-18 17:58S 27°22' E 153°11'0 0.0
2017-Sep-18 17:30S 27°22' E 153°11'1 1.9
2017-Sep-18 17:00S 27°23' E 153°10'1 2.8
2017-Sep-18 16:29S 27°24' E 153°09'0 0.0
2017-Sep-18 15:56S 27°24' E 153°09'0 0.0
2017-Sep-18 15:29S 27°24' E 153°09'0 0.0
2017-Sep-18 14:59S 27°24' E 153°09'0 0.0
2017-Sep-18 14:29S 27°24' E 153°09'0 0.0
2017-Sep-18 13:59S 27°24' E 153°09'0 0.0
2017-Sep-18 13:14S 27°24' E 153°09'0 0.0
2017-Sep-18 12:20S 27°24' E 153°09'2 1.3
2017-Sep-18 11:02S 27°25' E 153°08'2 8.1
2017-Sep-18 10:50S 27°24' E 153°09'0 0.5
2017-Sep-18 10:30S 27°24' E 153°09'0 0.0
2017-Sep-18 10:00S 27°24' E 153°09'0 0.0
2017-Sep-18 09:21S 27°24' E 153°09'0 1.1
2017-Sep-18 09:00S 27°24' E 153°09'1 2.8
2017-Sep-18 08:30S 27°22' E 153°10'0 0.6
2017-Sep-18 08:01S 27°23' E 153°10'1 1.4
2017-Sep-18 07:01S 27°24' E 153°09'0 0.3
2017-Sep-18 06:57S 27°24' E 153°09'1 2.9
2017-Sep-18 06:30S 27°23' E 153°10'1 2.5
2017-Sep-18 05:58S 27°22' E 153°11'0 0.1
2017-Sep-18 04:21S 27°22' E 153°11'0 0.1
2017-Sep-18 03:52S 27°22' E 153°11'0 0.2
2017-Sep-18 03:20S 27°22' E 153°11'2 1.6
2017-Sep-18 01:54S 27°24' E 153°09'1 0.3
2017-Sep-18 00:04S 27°23' E 153°09'0 0.0
2017-Sep-17 23:37S 27°23' E 153°09'1 0.7
2017-Sep-17 21:41S 27°22' E 153°10'0 0.6
2017-Sep-17 21:18S 27°22' E 153°11'0 0.3
2017-Sep-17 20:59S 27°22' E 153°10'0 0.1
2017-Sep-17 20:30S 27°22' E 153°10'1 1.1
2017-Sep-17 20:00S 27°22' E 153°10'2 3.5
2017-Sep-17 19:30S 27°24' E 153°09'0 0.0
2017-Sep-17 19:00S 27°24' E 153°09'0 0.0
2017-Sep-17 18:30S 27°24' E 153°09'0 0.0
2017-Sep-17 18:00S 27°24' E 153°09'0 0.0
2017-Sep-17 17:30S 27°24' E 153°09'0 0.0
2017-Sep-17 17:00S 27°24' E 153°09'0 0.0
2017-Sep-17 16:31S 27°24' E 153°09'0 0.0
2017-Sep-17 16:00S 27°24' E 153°09'0 0.0
2017-Sep-17 15:30S 27°24' E 153°09'0 0.0
2017-Sep-17 15:01S 27°24' E 153°09'0 0.0
2017-Sep-17 14:31S 27°24' E 153°09'0 0.0
2017-Sep-17 14:01S 27°24' E 153°09'0 0.0
2017-Sep-17 13:31S 27°24' E 153°09'0 0.0
2017-Sep-17 13:01S 27°24' E 153°09'0 0.0
2017-Sep-17 12:29S 27°24' E 153°09'1 1.8
2017-Sep-17 11:53S 27°23' E 153°10'0 0.0
2017-Sep-17 11:29S 27°23' E 153°10'0 0.1
2017-Sep-17 11:00S 27°23' E 153°10'1 2.4
2017-Sep-17 10:30S 27°22' E 153°10'2 3.4
2017-Sep-17 10:00S 27°23' E 153°09'1 1.3
2017-Sep-17 09:23S 27°24' E 153°09'0 0.0
2017-Sep-17 09:00S 27°24' E 153°09'0 0.0
2017-Sep-17 08:30S 27°24' E 153°09'0 0.0
2017-Sep-17 07:50S 27°24' E 153°09'3 0.3
2017-Sep-16 22:45S 27°21' E 153°11'0 1.6
2017-Sep-16 22:30S 27°22' E 153°11'0 0.0
2017-Sep-16 21:57S 27°22' E 153°11'3 1.5
2017-Sep-16 20:06S 27°24' E 153°09'0 0.3
2017-Sep-16 19:57S 27°24' E 153°09'0 0.8
2017-Sep-16 19:30S 27°24' E 153°09'0 0.0
2017-Sep-16 19:00S 27°24' E 153°09'0 0.0
2017-Sep-16 18:30S 27°24' E 153°09'0 0.0
2017-Sep-16 18:00S 27°24' E 153°09'0 0.0
2017-Sep-16 17:30S 27°24' E 153°09'0 0.0
2017-Sep-16 16:51S 27°24' E 153°09'0 0.0
2017-Sep-16 16:27S 27°24' E 153°09'0 0.0
2017-Sep-16 15:51S 27°24' E 153°09'0 0.0
2017-Sep-16 15:27S 27°24' E 153°09'0 0.0
2017-Sep-16 13:24S 27°24' E 153°09'0 0.0
2017-Sep-16 12:54S 27°24' E 153°09'0 0.0
2017-Sep-16 11:39S 27°24' E 153°09'0 0.0
2017-Sep-16 09:09S 27°24' E 153°09'0 0.0
2017-Sep-16 08:57S 27°24' E 153°09'0 0.0
2017-Sep-15 19:56S 27°24' E 153°09'1 3.0
2017-Sep-15 19:29S 27°23' E 153°10'0 1.0
2017-Sep-15 19:00S 27°22' E 153°10'0 0.8
2017-Sep-15 18:31S 27°23' E 153°10'1 1.5
2017-Sep-15 17:33S 27°24' E 153°09'0 0.0
2017-Sep-15 17:24S 27°24' E 153°09'0 0.0
2017-Sep-15 16:57S 27°24' E 153°09'0 0.0
2017-Sep-15 16:30S 27°24' E 153°09'0 0.0
2017-Sep-15 16:00S 27°24' E 153°09'0 0.0
2017-Sep-15 15:27S 27°24' E 153°09'0 0.0
2017-Sep-15 15:00S 27°24' E 153°09'0 0.0
2017-Sep-15 14:24S 27°24' E 153°09'0 0.0
2017-Sep-15 14:00S 27°24' E 153°09'0 0.0
2017-Sep-15 13:30S 27°24' E 153°09'0 0.0
2017-Sep-15 12:57S 27°24' E 153°09'0 0.0
2017-Sep-15 12:03S 27°24' E 153°09'0 0.0
2017-Sep-15 11:54S 27°24' E 153°09'0 0.0
2017-Sep-15 11:30S 27°24' E 153°09'0 0.0
2017-Sep-15 10:54S 27°24' E 153°09'0 0.0
2017-Sep-15 10:30S 27°24' E 153°09'0 0.0
2017-Sep-15 09:54S 27°24' E 153°09'0 0.0
2017-Sep-15 09:27S 27°24' E 153°09'0 0.0
2017-Sep-15 09:00S 27°24' E 153°09'0 0.0
2017-Sep-15 08:27S 27°24' E 153°09'0 0.0
2017-Sep-15 08:00S 27°24' E 153°09'2 0.7
2017-Sep-15 05:05S 27°22' E 153°10'0 2.6
2017-Sep-15 04:55S 27°23' E 153°10'1 1.9
2017-Sep-15 04:28S 27°22' E 153°11'0 0.2
2017-Sep-15 03:40S 27°22' E 153°10'2 8.5
2017-Sep-15 03:29S 27°23' E 153°09'1 0.1
2017-Sep-14 19:37S 27°24' E 153°09'0 0.0
2017-Sep-14 19:19S 27°24' E 153°09'0 0.0
2017-Sep-14 18:55S 27°24' E 153°09'0 0.0
2017-Sep-14 18:25S 27°24' E 153°09'0 0.0
2017-Sep-14 17:55S 27°24' E 153°09'0 0.0
2017-Sep-14 17:25S 27°24' E 153°09'0 0.0
2017-Sep-14 16:55S 27°24' E 153°09'0 0.0
2017-Sep-14 16:25S 27°24' E 153°09'0 0.0
2017-Sep-14 15:58S 27°24' E 153°09'0 0.0
2017-Sep-14 15:28S 27°24' E 153°09'0 0.0
2017-Sep-14 14:55S 27°24' E 153°09'0 0.0
2017-Sep-14 13:34S 27°24' E 153°09'0 0.0
2017-Sep-14 13:28S 27°24' E 153°09'0 0.0
2017-Sep-14 12:40S 27°24' E 153°09'0 0.0
2017-Sep-14 12:22S 27°24' E 153°09'0 0.0
2017-Sep-14 10:25S 27°24' E 153°09'1 0.1
2017-Sep-14 00:20S 27°23' E 153°09'2 1.4
2017-Sep-13 23:10S 27°22' E 153°10'2 9.3
2017-Sep-13 23:00S 27°23' E 153°09'0 0.0
2017-Sep-13 22:30S 27°23' E 153°09'2 4.3
2017-Sep-13 22:00S 27°21' E 153°11'3 2.2
2017-Sep-13 20:39S 27°24' E 153°09'0 0.0
2017-Sep-13 20:27S 27°24' E 153°09'0 0.0
2017-Sep-13 19:57S 27°24' E 153°09'0 0.0
2017-Sep-13 19:30S 27°24' E 153°09'0 0.0
2017-Sep-13 19:00S 27°24' E 153°09'2 4.3
2017-Sep-13 18:30S 27°22' E 153°10'1 2.1
2017-Sep-13 18:00S 27°21' E 153°11'1 1.6
2017-Sep-13 17:30S 27°22' E 153°11'0 0.0
2017-Sep-13 17:00S 27°22' E 153°11'1 1.3
2017-Sep-13 16:30S 27°22' E 153°10'2 3.5
2017-Sep-13 15:59S 27°24' E 153°09'0 0.0
2017-Sep-13 15:30S 27°24' E 153°09'1 2.0
2017-Sep-13 14:59S 27°23' E 153°10'0 0.0
2017-Sep-13 14:30S 27°23' E 153°10'1 2.6
2017-Sep-13 13:59S 27°22' E 153°10'2 4.8
2017-Sep-13 13:30S 27°24' E 153°09'0 0.0
2017-Sep-13 12:59S 27°24' E 153°09'0 0.0
2017-Sep-13 12:29S 27°24' E 153°09'0 0.0
2017-Sep-13 11:59S 27°24' E 153°09'0 0.0
2017-Sep-13 11:29S 27°24' E 153°09'0 0.0
2017-Sep-13 10:59S 27°24' E 153°09'0 0.0
2017-Sep-13 10:29S 27°24' E 153°09'0 0.0
2017-Sep-13 09:59S 27°24' E 153°09'0 0.0
2017-Sep-13 09:29S 27°24' E 153°09'0 0.0
2017-Sep-13 08:59S 27°24' E 153°09'0 0.0
2017-Sep-13 08:29S 27°24' E 153°09'0 0.2
2017-Sep-13 06:33S 27°24' E 153°09'0 3.9
2017-Sep-13 06:28S 27°24' E 153°09'1 0.5
2017-Sep-13 04:01S 27°23' E 153°10'0 0.9
2017-Sep-13 03:52S 27°23' E 153°10'0 0.1
2017-Sep-13 03:23S 27°23' E 153°10'0 0.0
2017-Sep-12 20:56S 27°23' E 153°10'1 1.7
2017-Sep-12 20:03S 27°24' E 153°09'1 7.7
2017-Sep-12 19:55S 27°23' E 153°10'0 0.8
2017-Sep-12 19:30S 27°23' E 153°10'2 3.1
2017-Sep-12 19:00S 27°21' E 153°11'3 0.6
2017-Sep-12 14:01S 27°24' E 153°09'0 0.0
2017-Sep-12 14:00S 27°24' E 153°09'0 0.0
2017-Sep-12 13:30S 27°24' E 153°09'0 0.0
2017-Sep-12 13:00S 27°24' E 153°09'0 0.0
2017-Sep-12 12:30S 27°24' E 153°09'0 0.0
2017-Sep-12 11:59S 27°24' E 153°09'0 0.0
2017-Sep-12 11:30S 27°24' E 153°09'0 0.0
2017-Sep-12 11:00S 27°24' E 153°09'0 0.0
2017-Sep-12 10:30S 27°24' E 153°09'0 0.0
2017-Sep-12 09:59S 27°24' E 153°09'0 0.0
2017-Sep-12 09:30S 27°24' E 153°09'0 0.0
2017-Sep-12 08:59S 27°24' E 153°09'0 0.0
2017-Sep-12 08:30S 27°24' E 153°09'0 0.0
2017-Sep-12 08:00S 27°24' E 153°09'0 0.0
2017-Sep-12 07:30S 27°24' E 153°09'0 0.0
2017-Sep-11 16:42S 27°24' E 153°09'0 0.0
2017-Sep-11 15:47S 27°24' E 153°09'0 0.0
2017-Sep-11 15:25S 27°24' E 153°09'0 0.0
2017-Sep-11 15:00S 27°24' E 153°09'0 0.0
2017-Sep-11 14:29S 27°24' E 153°09'0 0.0
2017-Sep-11 13:59S 27°24' E 153°09'0 0.0
2017-Sep-11 13:22S 27°24' E 153°09'0 0.0
2017-Sep-11 12:54S 27°24' E 153°09'3 6.6
2017-Sep-11 12:30S 27°22' E 153°11'0 0.4
2017-Sep-11 12:00S 27°22' E 153°11'1 1.6
2017-Sep-11 11:30S 27°22' E 153°10'2 3.9
2017-Sep-11 10:59S 27°24' E 153°09'0 0.0
2017-Sep-11 10:30S 27°24' E 153°09'1 1.0
2017-Sep-11 10:00S 27°24' E 153°09'2 1.8
2017-Sep-11 08:44S 27°26' E 153°08'2 6.4
2017-Sep-11 08:26S 27°24' E 153°09'0 0.0
2017-Sep-10 19:38S 27°24' E 153°09'0 0.0
2017-Sep-10 19:29S 27°24' E 153°09'  

Dump ship's entire track history